Time;durP1;ratioP1;P1;durP2;ratioP2;P2;SDS_P1;SDS_P2;PMS_P1;PMS_P2;Temp;Humidity;BMP_temperature;BMP_pressure;BME280_temperature;BME280_humidity;BME280_pressure;Samples;Min_cycle;Max_cycle;Signal;HPM_P1;HPM_P2
2022/05/14 00:01:00;;;;;;;0.00;0.00;;;;;;;;;;5040290;28;92946;-73
2022/05/14 00:03:27;;;;;;;0.00;0.00;;;;;;;;;;5023281;28;92826;-73
2022/05/14 00:05:55;;;;;;;0.00;0.00;;;;;;;;;;5043262;28;92236;-73
2022/05/14 00:08:22;;;;;;;0.00;0.00;;;;;;;;;;5039499;28;93488;-73
2022/05/14 00:13:34;;;;;;;0.00;0.00;;;;;;;;;;5040038;28;95925;-72
2022/05/14 00:16:01;;;;;;;0.00;0.00;;;;;;;;;;5039463;28;94884;-73
2022/05/14 00:18:27;;;;;;;0.00;0.00;;;;;;;;;;5040058;28;92166;-72
2022/05/14 00:20:54;;;;;;;0.00;0.00;;;;;;;;;;5039921;28;93300;-72
2022/05/14 00:23:20;;;;;;;0.00;0.00;;;;;;;;;;5039827;28;93436;-72
2022/05/14 00:25:47;;;;;;;0.57;0.57;;;;;;;;;;5039966;28;92551;-72
2022/05/14 00:28:14;;;;;;;0.00;0.00;;;;;;;;;;5043129;28;93338;-73
2022/05/14 00:30:40;;;;;;;0.00;0.00;;;;;;;;;;5039573;28;92422;-71
2022/05/14 00:33:10;;;;;;;0.00;0.00;;;;;;;;;;5039294;28;93723;-72
2022/05/14 00:35:37;;;;;;;0.00;0.00;;;;;;;;;;5019832;28;96219;-72
2022/05/14 00:38:04;;;;;;;0.00;0.00;;;;;;;;;;5039477;28;92274;-72
2022/05/14 00:40:38;;;;;;;0.00;0.00;;;;;;;;;;5021556;28;94670;-71
2022/05/14 00:43:05;;;;;;;0.00;0.00;;;;;;;;;;5021348;28;96322;-72
2022/05/14 00:45:33;;;;;;;0.00;0.00;;;;;;;;;;5039137;28;92346;-72
2022/05/14 00:47:59;;;;;;;0.00;0.00;;;;;;;;;;5021299;28;95875;-72
2022/05/14 00:50:40;;;;;;;0.00;0.00;;;;;;;;;;5021074;28;96046;-71
2022/05/14 00:53:16;;;;;;;0.00;0.00;;;;;;;;;;5021867;28;93286;-71
2022/05/14 00:55:44;;;;;;;0.00;0.00;;;;;;;;;;5019422;28;95425;-72
2022/05/14 00:58:13;;;;;;;0.55;0.55;;;;;;;;;;5039462;28;92216;-72
2022/05/14 01:00:40;;;;;;;0.00;0.00;;;;;;;;;;5019139;28;94657;-71
2022/05/14 01:03:06;;;;;;;0.00;0.00;;;;;;;;;;5038834;28;93935;-72
2022/05/14 01:05:33;;;;;;;0.00;0.00;;;;;;;;;;5039174;28;92309;-71
2022/05/14 01:08:01;;;;;;;0.55;0.55;;;;;;;;;;5020990;28;95782;-72
2022/05/14 01:10:30;;;;;;;0.00;0.00;;;;;;;;;;5004204;28;96509;-71
2022/05/14 01:13:00;;;;;;;0.00;0.00;;;;;;;;;;5024295;28;92323;-71
2022/05/14 01:15:41;;;;;;;0.00;0.00;;;;;;;;;;5030224;27;94747;-72
2022/05/14 01:18:07;;;;;;;0.00;0.00;;;;;;;;;;5041640;27;91750;-72
2022/05/14 01:20:35;;;;;;;0.00;0.00;;;;;;;;;;5041072;27;95105;-71
2022/05/14 01:23:12;;;;;;;0.00;0.00;;;;;;;;;;5040598;27;95527;-71
2022/05/14 01:28:32;;;;;;;0.00;0.00;;;;;;;;;;5040812;27;98331;-73
2022/05/14 01:31:00;;;;;;;0.00;0.00;;;;;;;;;;5023900;27;94797;-71
2022/05/14 01:33:29;;;;;;;0.00;0.00;;;;;;;;;;5040684;27;92348;-71
2022/05/14 01:35:56;;;;;;;0.00;0.00;;;;;;;;;;5061997;27;92571;-71
2022/05/14 01:38:23;;;;;;;0.00;0.00;;;;;;;;;;5058952;27;92406;-71
2022/05/14 01:40:49;;;;;;;0.00;0.00;;;;;;;;;;5040851;27;94461;-71
2022/05/14 01:43:16;;;;;;;0.00;0.00;;;;;;;;;;5041082;27;95878;-71
2022/05/14 01:45:42;;;;;;;0.00;0.00;;;;;;;;;;5040833;27;93306;-71
2022/05/14 01:48:09;;;;;;;0.00;0.00;;;;;;;;;;5040494;27;95726;-71
2022/05/14 01:50:36;;;;;;;0.00;0.00;;;;;;;;;;5038491;27;97943;-72
2022/05/14 01:53:02;;;;;;;0.00;0.00;;;;;;;;;;5058846;27;92920;-71
2022/05/14 01:55:28;;;;;;;0.00;0.00;;;;;;;;;;5040419;27;96275;-71
2022/05/14 01:57:55;;;;;;;0.00;0.00;;;;;;;;;;5043371;27;96410;-71
2022/05/14 02:00:28;;;;;;;0.00;0.00;;;;;;;;;;5024522;27;96037;-72
2022/05/14 02:02:54;;;;;;;0.00;0.00;;;;;;;;;;5040215;27;96231;-72
2022/05/14 02:05:22;;;;;;;0.00;0.00;;;;;;;;;;5040407;27;92259;-72
2022/05/14 02:07:52;;;;;;;0.00;0.00;;;;;;;;;;5058626;27;94233;-72
2022/05/14 02:10:19;;;;;;;0.00;0.00;;;;;;;;;;5058155;27;93511;-72
2022/05/14 02:12:46;;;;;;;0.00;0.00;;;;;;;;;;5039116;27;92323;-72
2022/05/14 02:15:12;;;;;;;0.00;0.00;;;;;;;;;;5056768;27;94789;-72
2022/05/14 02:17:40;;;;;;;0.00;0.00;;;;;;;;;;5061206;27;93718;-72
2022/05/14 02:20:07;;;;;;;0.00;0.00;;;;;;;;;;5040134;27;95995;-72
2022/05/14 02:22:33;;;;;;;0.08;0.08;;;;;;;;;;5039703;27;94066;-73
2022/05/14 02:25:00;;;;;;;0.10;0.10;;;;;;;;;;5040052;27;92461;-73
2022/05/14 02:27:26;;;;;;;0.00;0.00;;;;;;;;;;5039939;27;95341;-73
2022/05/14 02:29:55;;;;;;;0.00;0.00;;;;;;;;;;5039799;27;94005;-73
2022/05/14 02:32:23;;;;;;;0.00;0.00;;;;;;;;;;5058624;27;91584;-73
2022/05/14 02:34:49;;;;;;;0.00;0.00;;;;;;;;;;5058175;27;92482;-73
2022/05/14 02:37:17;;;;;;;0.00;0.00;;;;;;;;;;5039516;27;96038;-73
2022/05/14 02:39:45;;;;;;;0.00;0.00;;;;;;;;;;5059723;27;94749;-72
2022/05/14 02:42:11;;;;;;;0.00;0.00;;;;;;;;;;5039394;27;93985;-72
2022/05/14 02:44:37;;;;;;;0.00;0.00;;;;;;;;;;5057828;27;92344;-72
2022/05/14 02:47:04;;;;;;;0.90;0.90;;;;;;;;;;5039622;27;93784;-72
2022/05/14 02:49:30;;;;;;;0.00;0.00;;;;;;;;;;5036828;27;96155;-73
2022/05/14 02:51:57;;;;;;;0.00;0.00;;;;;;;;;;5057853;27;92302;-72
2022/05/14 02:54:24;;;;;;;0.00;0.00;;;;;;;;;;5057758;27;92675;-73
2022/05/14 02:56:51;;;;;;;0.00;0.00;;;;;;;;;;5057896;27;91927;-73
2022/05/14 02:59:17;;;;;;;2.35;0.30;;;;;;;;;;5057739;27;92235;-72
2022/05/14 03:01:50;;;;;;;0.00;0.00;;;;;;;;;;5042858;27;93294;-73
2022/05/14 03:04:22;;;;;;;0.00;0.00;;;;;;;;;;5037719;27;94839;-73
2022/05/14 03:06:50;;;;;;;0.00;0.00;;;;;;;;;;5057542;27;94639;-73
2022/05/14 03:09:16;;;;;;;0.00;0.00;;;;;;;;;;5039009;27;95658;-73
2022/05/14 03:11:43;;;;;;;0.00;0.00;;;;;;;;;;5057587;27;92322;-73
2022/05/14 03:14:11;;;;;;;0.00;0.00;;;;;;;;;;5039204;27;94679;-73
2022/05/14 03:16:39;;;;;;;0.00;0.00;;;;;;;;;;5039264;27;95471;-72
2022/05/14 03:19:05;;;;;;;0.28;0.28;;;;;;;;;;5039250;27;92252;-72
2022/05/14 03:21:32;;;;;;;0.00;0.00;;;;;;;;;;5039950;27;94150;-73
2022/05/14 03:23:58;;;;;;;0.00;0.00;;;;;;;;;;5061334;27;93998;-73
2022/05/14 03:26:25;;;;;;;0.00;0.00;;;;;;;;;;5042866;27;94349;-73
2022/05/14 03:28:51;;;;;;;0.00;0.00;;;;;;;;;;5058981;27;95769;-73
2022/05/14 03:31:18;;;;;;;0.00;0.00;;;;;;;;;;5042650;27;92389;-73
2022/05/14 03:33:45;;;;;;;0.00;0.00;;;;;;;;;;5042827;27;94489;-73
2022/05/14 03:36:12;;;;;;;0.00;0.00;;;;;;;;;;5060676;27;93456;-73
2022/05/14 03:38:39;;;;;;;0.00;0.00;;;;;;;;;;5042419;27;92401;-72
2022/05/14 03:41:06;;;;;;;0.00;0.00;;;;;;;;;;5042446;27;96506;-72
2022/05/14 03:43:32;;;;;;;0.00;0.00;;;;;;;;;;5060619;27;93803;-73
2022/05/14 03:46:00;;;;;;;0.00;0.00;;;;;;;;;;5046085;27;92284;-73
2022/05/14 03:48:30;;;;;;;0.10;0.10;;;;;;;;;;5042200;27;95949;-72
2022/05/14 03:50:56;;;;;;;0.00;0.00;;;;;;;;;;5041652;27;92364;-72
2022/05/14 03:53:23;;;;;;;0.00;0.00;;;;;;;;;;5058638;27;94701;-72
2022/05/14 03:55:49;;;;;;;0.00;0.00;;;;;;;;;;5060075;27;93364;-72
2022/05/14 03:58:16;;;;;;;0.00;0.00;;;;;;;;;;5042226;27;92279;-72
2022/05/14 04:00:42;;;;;;;0.00;0.00;;;;;;;;;;5042269;27;96223;-72
2022/05/14 04:03:09;;;;;;;0.00;0.00;;;;;;;;;;5060263;27;93292;-72
2022/05/14 04:05:36;;;;;;;0.00;0.00;;;;;;;;;;5060092;27;92143;-72
2022/05/14 04:08:03;;;;;;;0.00;0.00;;;;;;;;;;5044922;27;95427;-72
2022/05/14 04:10:30;;;;;;;0.00;0.00;;;;;;;;;;5042460;27;91601;-72
2022/05/14 04:12:58;;;;;;;0.00;0.00;;;;;;;;;;5060249;27;92329;-72
2022/05/14 04:15:25;;;;;;;0.00;0.00;;;;;;;;;;5060123;27;93242;-72
2022/05/14 04:17:53;;;;;;;0.00;0.00;;;;;;;;;;5040676;27;94654;-72
2022/05/14 04:20:20;;;;;;;0.00;0.00;;;;;;;;;;5059841;27;95621;-72
2022/05/14 04:22:47;;;;;;;0.00;0.00;;;;;;;;;;5041745;27;96144;-72
2022/05/14 04:25:14;;;;;;;0.00;0.00;;;;;;;;;;5041818;27;92486;-72
2022/05/14 04:27:41;;;;;;;0.00;0.00;;;;;;;;;;5063007;27;93331;-72
2022/05/14 04:30:09;;;;;;;0.00;0.00;;;;;;;;;;5041725;27;92232;-72
2022/05/14 04:32:35;;;;;;;0.00;0.00;;;;;;;;;;5041566;27;95364;-72
2022/05/14 04:35:02;;;;;;;0.00;0.00;;;;;;;;;;5041076;27;92666;-72
2022/05/14 04:37:29;;;;;;;0.00;0.00;;;;;;;;;;5041688;27;92394;-72
2022/05/14 04:39:55;;;;;;;0.00;0.00;;;;;;;;;;5041660;27;95062;-71
2022/05/14 04:42:22;;;;;;;0.00;0.00;;;;;;;;;;5039715;27;96800;-71
2022/05/14 04:44:48;;;;;;;0.00;0.00;;;;;;;;;;5041481;27;92382;-71
2022/05/14 04:47:16;;;;;;;0.00;0.00;;;;;;;;;;5041078;27;96410;-72
2022/05/14 04:49:44;;;;;;;0.00;0.00;;;;;;;;;;5044468;27;94404;-72
2022/05/14 04:52:12;;;;;;;0.00;0.00;;;;;;;;;;5040973;27;94808;-72
2022/05/14 04:54:39;;;;;;;0.03;0.03;;;;;;;;;;5039805;27;96358;-72
2022/05/14 04:57:06;;;;;;;0.00;0.00;;;;;;;;;;5041428;27;92223;-72
2022/05/14 04:59:33;;;;;;;0.00;0.00;;;;;;;;;;5041917;27;95640;-72
2022/05/14 05:04:47;;;;;;;0.00;0.00;;;;;;;;;;5041137;27;92382;-71
2022/05/14 05:07:14;;;;;;;0.10;0.10;;;;;;;;;;5057910;27;94818;-72
2022/05/14 05:09:45;;;;;;;0.00;0.00;;;;;;;;;;5041158;27;95604;-72
2022/05/14 05:12:11;;;;;;;0.00;0.00;;;;;;;;;;5062492;27;92155;-72
2022/05/14 05:14:38;;;;;;;0.00;0.00;;;;;;;;;;5059146;27;93682;-72
2022/05/14 05:17:05;;;;;;;0.00;0.00;;;;;;;;;;5059052;27;92457;-72
2022/05/14 05:19:31;;;;;;;0.00;0.00;;;;;;;;;;5059396;27;93304;-72
2022/05/14 05:21:57;;;;;;;0.20;0.20;;;;;;;;;;5058997;27;93752;-71
2022/05/14 05:24:24;;;;;;;0.00;0.00;;;;;;;;;;5059463;27;91666;-72
2022/05/14 05:26:50;;;;;;;0.00;0.00;;;;;;;;;;5059293;27;92460;-72
2022/05/14 05:29:18;;;;;;;0.00;0.00;;;;;;;;;;5058396;27;93863;-72
2022/05/14 05:31:44;;;;;;;0.22;0.22;;;;;;;;;;5057604;27;94678;-72
2022/05/14 05:34:11;;;;;;;0.00;0.00;;;;;;;;;;5061955;27;95802;-72
2022/05/14 05:36:37;;;;;;;0.10;0.10;;;;;;;;;;5059078;27;92303;-72
2022/05/14 05:39:04;;;;;;;0.30;0.30;;;;;;;;;;5058787;27;93674;-71
2022/05/14 05:41:30;;;;;;;0.00;0.00;;;;;;;;;;5058235;27;93528;-72
2022/05/14 05:43:57;;;;;;;0.00;0.00;;;;;;;;;;5059065;27;92219;-71
2022/05/14 05:46:23;;;;;;;1.92;0.93;;;;;;;;;;5058715;27;93041;-72
2022/05/14 05:48:50;;;;;;;0.00;0.00;;;;;;;;;;5059130;27;92420;-72
2022/05/14 05:51:17;;;;;;;0.00;0.00;;;;;;;;;;5058130;27;93696;-72
2022/05/14 05:59:17;;;;;;;0.08;0.08;;;;;;;;;;5058900;27;95151;-72
2022/05/14 06:01:44;;;;;;;0.00;0.00;;;;;;;;;;5058267;27;93450;-73
2022/05/14 06:04:10;;;;;;;0.00;0.00;;;;;;;;;;5058627;27;92148;-72
2022/05/14 06:06:41;;;;;;;0.20;0.20;;;;;;;;;;5058331;27;93414;-72
2022/05/14 06:09:08;;;;;;;0.40;0.40;;;;;;;;;;5058354;27;93443;-73
2022/05/14 06:11:34;;;;;;;0.05;0.05;;;;;;;;;;5058023;27;92237;-73
2022/05/14 06:14:01;;;;;;;0.10;0.10;;;;;;;;;;5058908;27;92639;-73
2022/05/14 06:16:27;;;;;;;0.00;0.00;;;;;;;;;;5057869;27;93194;-73
2022/05/14 06:18:54;;;;;;;4.07;0.43;;;;;;;;;;5061546;27;92159;-72
2022/05/14 06:21:20;;;;;;;1.67;0.40;;;;;;;;;;5038463;27;95621;-73
2022/05/14 06:23:46;;;;;;;0.10;0.10;;;;;;;;;;5058400;27;92197;-73
2022/05/14 06:26:13;;;;;;;0.20;0.20;;;;;;;;;;5040400;27;92597;-72
2022/05/14 06:28:40;;;;;;;0.15;0.15;;;;;;;;;;5057899;27;93281;-72
2022/05/14 06:31:07;;;;;;;0.13;0.13;;;;;;;;;;5057577;27;92416;-72
2022/05/14 06:33:33;;;;;;;0.47;0.47;;;;;;;;;;5057962;27;93627;-72
2022/05/14 06:35:59;;;;;;;0.20;0.20;;;;;;;;;;5057963;27;93631;-72
2022/05/14 06:38:27;;;;;;;1.75;1.65;;;;;;;;;;5061448;27;91552;-72
2022/05/14 06:40:53;;;;;;;6.75;0.22;;;;;;;;;;5057718;27;94127;-72
2022/05/14 06:43:20;;;;;;;0.20;0.20;;;;;;;;;;5057621;27;92319;-72
2022/05/14 06:45:46;;;;;;;0.00;0.00;;;;;;;;;;5056142;27;94589;-72
2022/05/14 06:48:13;;;;;;;0.00;0.00;;;;;;;;;;5057849;27;92499;-72
2022/05/14 06:50:42;;;;;;;0.10;0.10;;;;;;;;;;5057570;27;92305;-72
2022/05/14 06:53:09;;;;;;;0.30;0.30;;;;;;;;;;5057598;27;93342;-73
2022/05/14 06:55:38;;;;;;;2.20;1.48;;;;;;;;;;5057278;27;94020;-74
2022/05/14 06:58:08;;;;;;;0.10;0.10;;;;;;;;;;5056418;27;93541;-73
2022/05/14 07:00:34;;;;;;;0.10;0.10;;;;;;;;;;5042793;27;93861;-73
2022/05/14 07:08:31;;;;;;;0.10;0.10;;;;;;;;;;5056664;27;94844;-72
2022/05/14 07:10:57;;;;;;;0.38;0.38;;;;;;;;;;5055875;27;94703;-72
2022/05/14 07:13:23;;;;;;;0.10;0.10;;;;;;;;;;5057283;27;95889;-72
2022/05/14 07:15:50;;;;;;;0.10;0.10;;;;;;;;;;5056933;27;94468;-74
2022/05/14 07:18:16;;;;;;;0.40;0.40;;;;;;;;;;5039707;27;92353;-75
2022/05/14 07:20:42;;;;;;;0.10;0.10;;;;;;;;;;5057339;27;93908;-73
2022/05/14 07:23:11;;;;;;;0.10;0.10;;;;;;;;;;5059623;27;94411;-73
2022/05/14 07:25:37;;;;;;;0.75;0.65;;;;;;;;;;5057405;27;93402;-72
2022/05/14 07:28:04;;;;;;;0.10;0.10;;;;;;;;;;5057461;27;92374;-73
2022/05/14 07:30:30;;;;;;;0.10;0.10;;;;;;;;;;5054181;27;92579;-74
2022/05/14 07:32:56;;;;;;;0.08;0.08;;;;;;;;;;5057159;27;93864;-74
2022/05/14 07:35:23;;;;;;;0.20;0.20;;;;;;;;;;5055201;27;96189;-72
2022/05/14 07:37:51;;;;;;;0.10;0.10;;;;;;;;;;5056906;27;92308;-71
2022/05/14 07:40:19;;;;;;;0.00;0.00;;;;;;;;;;5056893;27;94658;-71
2022/05/14 07:42:54;;;;;;;0.10;0.10;;;;;;;;;;5056963;27;93657;-71
2022/05/14 07:45:23;;;;;;;0.00;0.00;;;;;;;;;;5060148;27;92340;-71
2022/05/14 07:47:51;;;;;;;1.48;0.30;;;;;;;;;;5056816;27;93442;-71
2022/05/14 07:50:18;;;;;;;0.10;0.10;;;;;;;;;;5056426;27;92380;-72
2022/05/14 07:52:44;;;;;;;0.00;0.00;;;;;;;;;;5057338;27;93412;-72
2022/05/14 07:55:10;;;;;;;0.10;0.10;;;;;;;;;;5056650;27;93635;-71
2022/05/14 07:57:37;;;;;;;0.00;0.00;;;;;;;;;;5057063;27;92315;-71
2022/05/14 08:00:04;;;;;;;0.10;0.10;;;;;;;;;;5055333;27;94540;-71
2022/05/14 08:02:39;;;;;;;0.00;0.00;;;;;;;;;;5055928;27;92476;-71
2022/05/14 08:05:08;;;;;;;0.10;0.10;;;;;;;;;;5039190;27;92626;-73
2022/05/14 08:07:35;;;;;;;0.08;0.08;;;;;;;;;;5059908;27;93310;-72
2022/05/14 08:10:02;;;;;;;0.65;0.65;;;;;;;;;;5058339;27;92257;-71
2022/05/14 08:12:37;;;;;;;0.00;0.00;;;;;;;;;;5060169;27;93419;-72
2022/05/14 08:15:04;;;;;;;0.00;0.00;;;;;;;;;;5042030;27;93910;-72
2022/05/14 08:17:31;;;;;;;0.10;0.10;;;;;;;;;;5060529;27;91698;-72
2022/05/14 08:19:57;;;;;;;0.25;0.25;;;;;;;;;;5054306;27;94127;-72
2022/05/14 08:25:18;;;;;;;0.10;0.10;;;;;;;;;;5041663;27;94836;-72
2022/05/14 08:27:46;;;;;;;0.10;0.10;;;;;;;;;;5041449;27;95223;-73
2022/05/14 08:30:23;;;;;;;0.10;0.10;;;;;;;;;;5039395;27;92180;-72
2022/05/14 08:32:50;;;;;;;0.00;0.00;;;;;;;;;;5039115;27;93409;-72
2022/05/14 08:35:17;;;;;;;0.13;0.13;;;;;;;;;;5038496;27;95160;-73
2022/05/14 08:37:44;;;;;;;0.57;0.50;;;;;;;;;;5039154;27;93699;-73
2022/05/14 08:40:14;;;;;;;0.22;0.22;;;;;;;;;;5038675;27;93332;-74
2022/05/14 08:42:47;;;;;;;0.35;0.35;;;;;;;;;;5039375;27;93254;-73
2022/05/14 08:45:20;;;;;;;0.17;0.17;;;;;;;;;;5038947;27;92373;-73
2022/05/14 08:47:54;;;;;;;0.10;0.10;;;;;;;;;;5043175;27;93980;-72
2022/05/14 08:50:26;;;;;;;0.22;0.22;;;;;;;;;;5039744;27;96043;-73
2022/05/14 08:53:00;;;;;;;0.30;0.30;;;;;;;;;;5038212;27;95166;-73
2022/05/14 08:55:33;;;;;;;2.30;0.35;;;;;;;;;;5038361;27;93541;-72
2022/05/14 08:58:19;;;;;;;0.10;0.10;;;;;;;;;;5038836;27;92559;-74
2022/05/14 09:00:46;;;;;;;0.10;0.10;;;;;;;;;;5038324;27;95143;-72
2022/05/14 09:03:12;;;;;;;0.65;0.38;;;;;;;;;;5038674;27;93400;-73
2022/05/14 09:05:39;;;;;;;0.10;0.10;;;;;;;;;;5038446;27;92169;-73
2022/05/14 09:08:07;;;;;;;0.10;0.10;;;;;;;;;;5020819;28;94715;-73
2022/05/14 09:10:39;;;;;;;0.40;0.40;;;;;;;;;;5038367;27;93508;-74
2022/05/14 09:13:08;;;;;;;0.10;0.10;;;;;;;;;;5042174;27;92312;-74
2022/05/14 09:15:41;;;;;;;0.10;0.10;;;;;;;;;;5036583;27;96233;-74
2022/05/14 09:18:11;;;;;;;0.68;0.30;;;;;;;;;;5038624;27;92345;-74
2022/05/14 09:20:49;;;;;;;0.20;0.20;;;;;;;;;;5020684;28;93286;-73
2022/05/14 09:23:24;;;;;;;0.10;0.10;;;;;;;;;;5039406;27;93416;-74
2022/05/14 09:25:50;;;;;;;0.20;0.20;;;;;;;;;;5038137;27;92356;-74
2022/05/14 09:28:26;;;;;;;0.10;0.10;;;;;;;;;;5037576;27;93140;-74
2022/05/14 09:30:54;;;;;;;5.57;0.30;;;;;;;;;;5037685;27;94016;-73
2022/05/14 09:33:27;;;;;;;0.65;0.65;;;;;;;;;;5040590;27;91704;-74
2022/05/14 09:35:55;;;;;;;0.10;0.10;;;;;;;;;;5040881;27;92537;-77
2022/05/14 09:38:23;;;;;;;0.10;0.10;;;;;;;;;;5037969;27;92360;-77
2022/05/14 09:40:51;;;;;;;0.10;0.10;;;;;;;;;;5036267;27;94846;-77
2022/05/14 09:43:18;;;;;;;0.20;0.20;;;;;;;;;;5040027;27;93074;-77
2022/05/14 09:45:56;;;;;;;0.28;0.28;;;;;;;;;;5038606;27;92433;-77
2022/05/14 09:48:31;;;;;;;2.63;1.65;;;;;;;;;;5037376;27;94970;-75
2022/05/14 09:51:02;;;;;;;0.20;0.20;;;;;;;;;;5037451;27;93818;-76
2022/05/14 09:53:31;;;;;;;0.10;0.10;;;;;;;;;;5040562;27;93308;-78
2022/05/14 09:56:09;;;;;;;0.10;0.10;;;;;;;;;;5037408;27;93679;-76
2022/05/14 09:58:45;;;;;;;0.20;0.20;;;;;;;;;;5022900;27;93977;-78
2022/05/14 10:01:19;;;;;;;0.15;0.15;;;;;;;;;;5019696;27;96282;-77
2022/05/14 10:03:52;;;;;;;0.10;0.10;;;;;;;;;;5036709;27;94048;-77
2022/05/14 10:06:29;;;;;;;0.13;0.13;;;;;;;;;;5035995;27;94829;-77
2022/05/14 10:08:55;;;;;;;0.20;0.20;;;;;;;;;;5037529;28;95741;-78
2022/05/14 10:11:26;;;;;;;0.10;0.10;;;;;;;;;;5037243;27;95654;-77
2022/05/14 10:14:05;;;;;;;0.20;0.20;;;;;;;;;;5045326;27;92501;-75
2022/05/14 10:16:39;;;;;;;0.10;0.10;;;;;;;;;;5037199;27;92913;-76
2022/05/14 10:19:28;;;;;;;0.10;0.10;;;;;;;;;;5037011;27;93519;-76
2022/05/14 10:22:05;;;;;;;0.28;0.28;;;;;;;;;;5040747;27;92309;-73
2022/05/14 10:27:35;;;;;;;0.10;0.10;;;;;;;;;;5037054;27;93141;-74
2022/05/14 10:30:01;;;;;;;0.28;0.28;;;;;;;;;;5037284;27;92977;-76
2022/05/14 10:32:30;;;;;;;0.10;0.10;;;;;;;;;;5034739;27;95605;-76
2022/05/14 10:35:18;;;;;;;0.10;0.10;;;;;;;;;;5036436;27;92404;-77
2022/05/14 10:38:01;;;;;;;0.20;0.20;;;;;;;;;;5037211;27;93382;-74
2022/05/14 10:40:31;;;;;;;0.10;0.10;;;;;;;;;;5036576;27;94433;-75
2022/05/14 10:43:03;;;;;;;0.10;0.10;;;;;;;;;;5022247;27;92681;-73
2022/05/14 10:45:37;;;;;;;0.10;0.10;;;;;;;;;;5036388;27;92961;-75
2022/05/14 10:48:15;;;;;;;0.20;0.20;;;;;;;;;;5036990;27;92302;-73
2022/05/14 10:50:43;;;;;;;0.10;0.10;;;;;;;;;;5037383;27;93721;-70
2022/05/14 10:53:10;;;;;;;0.10;0.10;;;;;;;;;;5037607;27;94010;-69
2022/05/14 10:55:56;;;;;;;0.15;0.15;;;;;;;;;;5036597;27;92224;-71
2022/05/14 10:58:35;;;;;;;1.25;0.95;;;;;;;;;;4992143;27;95004;-69
2022/05/14 11:01:10;;;;;;;0.10;0.10;;;;;;;;;;5018523;28;96119;-68
2022/05/14 11:03:37;;;;;;;0.10;0.10;;;;;;;;;;5038340;27;92336;-69
2022/05/14 11:06:03;;;;;;;0.20;0.20;;;;;;;;;;5039576;27;93337;-69
2022/05/14 11:08:32;;;;;;;0.40;0.40;;;;;;;;;;5036140;27;92969;-70
2022/05/14 11:11:16;;;;;;;0.10;0.10;;;;;;;;;;5036453;27;93399;-70
2022/05/14 11:14:06;;;;;;;0.10;0.10;;;;;;;;;;5038133;27;94466;-70
2022/05/14 11:16:35;;;;;;;0.20;0.20;;;;;;;;;;5036939;27;92040;-72
2022/05/14 11:19:04;;;;;;;0.17;0.17;;;;;;;;;;5036627;27;92799;-70
2022/05/14 11:21:35;;;;;;;0.10;0.10;;;;;;;;;;5036577;27;92936;-70
2022/05/14 11:24:03;;;;;;;0.35;0.35;;;;;;;;;;5037229;27;95288;-70
2022/05/14 11:26:30;;;;;;;0.15;0.15;;;;;;;;;;5036407;27;95802;-70
2022/05/14 11:29:00;;;;;;;0.10;0.10;;;;;;;;;;5039010;28;93578;-70
2022/05/14 11:31:29;;;;;;;0.20;0.20;;;;;;;;;;5036113;27;93378;-70
2022/05/14 11:33:57;;;;;;;0.20;0.20;;;;;;;;;;5038686;27;94213;-70
2022/05/14 11:36:25;;;;;;;0.25;0.25;;;;;;;;;;5036463;27;93137;-70
2022/05/14 11:39:30;;;;;;;0.43;0.38;;;;;;;;;;5036494;27;93704;-70
2022/05/14 11:42:15;;;;;;;0.10;0.10;;;;;;;;;;4954481;28;94071;-70
2022/05/14 11:44:47;;;;;;;0.10;0.10;;;;;;;;;;4955489;28;93194;-70
2022/05/14 11:47:32;;;;;;;0.57;0.57;;;;;;;;;;5009678;27;93477;-70
2022/05/14 11:50:00;;;;;;;0.10;0.10;;;;;;;;;;5037732;27;96032;-70
2022/05/14 11:52:45;;;;;;;0.10;0.10;;;;;;;;;;5042711;27;92311;-70
2022/05/14 11:55:27;;;;;;;0.10;0.10;;;;;;;;;;5039146;27;93809;-70
2022/05/14 11:58:00;;;;;;;0.10;0.10;;;;;;;;;;5039620;27;92354;-70
2022/05/14 12:00:32;;;;;;;0.10;0.10;;;;;;;;;;5038989;27;94260;-69
2022/05/14 12:03:13;;;;;;;0.10;0.10;;;;;;;;;;5039632;27;93497;-69
2022/05/14 12:05:43;;;;;;;0.10;0.10;;;;;;;;;;5039957;28;92353;-69
2022/05/14 12:08:36;;;;;;;0.25;0.25;;;;;;;;;;5040479;28;93502;-69
2022/05/14 12:11:19;;;;;;;0.40;0.35;;;;;;;;;;5039204;28;93367;-71
2022/05/14 12:13:45;;;;;;;0.10;0.10;;;;;;;;;;5039851;28;92243;-71
2022/05/14 12:16:12;;;;;;;0.10;0.10;;;;;;;;;;5041303;28;94802;-72
2022/05/14 12:18:42;;;;;;;0.20;0.20;;;;;;;;;;5040152;28;92198;-72
2022/05/14 12:21:09;;;;;;;0.10;0.10;;;;;;;;;;5039899;28;93465;-71
2022/05/14 12:23:41;;;;;;;0.10;0.10;;;;;;;;;;5021436;28;93281;-72
2022/05/14 12:26:24;;;;;;;0.10;0.10;;;;;;;;;;5039683;28;93386;-71
2022/05/14 12:28:52;;;;;;;0.65;0.35;;;;;;;;;;5039790;28;92602;-76
2022/05/14 12:34:08;;;;;;;0.10;0.10;;;;;;;;;;5039934;28;91666;-72
2022/05/14 12:36:40;;;;;;;0.20;0.20;;;;;;;;;;5039594;28;92694;-73
2022/05/14 12:39:09;;;;;;;0.10;0.10;;;;;;;;;;5042327;28;93548;-73
2022/05/14 12:41:41;;;;;;;0.40;0.40;;;;;;;;;;5038040;28;94646;-72
2022/05/14 12:44:13;;;;;;;0.17;0.17;;;;;;;;;;5039243;28;93403;-75
2022/05/14 12:46:40;;;;;;;;;;;;;;;;;;5039909;28;92434;-75
2022/05/14 12:49:06;;;;;;;0.30;0.30;;;;;;;;;;5037794;28;123346;-74
2022/05/14 12:51:32;;;;;;;0.15;0.15;;;;;;;;;;5038968;28;93490;-75
2022/05/14 12:53:59;;;;;;;0.00;0.00;;;;;;;;;;5038856;28;92316;-75
2022/05/14 12:56:28;;;;;;;0.10;0.10;;;;;;;;;;5038195;28;93560;-75
2022/05/14 12:58:54;;;;;;;0.17;0.17;;;;;;;;;;5042461;28;92956;-74
2022/05/14 13:01:21;;;;;;;0.10;0.10;;;;;;;;;;5039065;28;92706;-74
2022/05/14 13:03:58;;;;;;;0.30;0.30;;;;;;;;;;5039067;28;93576;-74
2022/05/14 13:06:29;;;;;;;0.13;0.13;;;;;;;;;;5037622;28;94963;-75
2022/05/14 13:09:02;;;;;;;0.10;0.10;;;;;;;;;;5039066;28;95983;-74
2022/05/14 13:11:30;;;;;;;0.10;0.10;;;;;;;;;;5038341;28;93498;-76
2022/05/14 13:13:58;;;;;;;0.10;0.10;;;;;;;;;;5038598;28;92225;-74
2022/05/14 13:16:27;;;;;;;0.47;0.47;;;;;;;;;;5038884;28;93250;-75
2022/05/14 13:18:54;;;;;;;0.10;0.10;;;;;;;;;;5038831;28;93744;-74
2022/05/14 13:21:23;;;;;;;1.38;0.85;;;;;;;;;;5023960;28;92350;-75
2022/05/14 13:24:03;;;;;;;0.20;0.20;;;;;;;;;;5038826;28;92255;-73
2022/05/14 13:26:36;;;;;;;0.13;0.13;;;;;;;;;;5039073;28;92222;-74
2022/05/14 13:29:26;;;;;;;0.17;0.17;;;;;;;;;;5038452;28;94645;-75
2022/05/14 13:32:09;;;;;;;0.20;0.20;;;;;;;;;;5026387;28;96086;-75
2022/05/14 13:37:34;;;;;;;0.65;0.50;;;;;;;;;;5014598;28;94670;-75
2022/05/14 13:40:21;;;;;;;0.10;0.10;;;;;;;;;;5038245;28;93690;-71
2022/05/14 13:42:52;;;;;;;0.30;0.30;;;;;;;;;;5020222;28;92426;-70
2022/05/14 13:45:27;;;;;;;0.10;0.10;;;;;;;;;;5023972;28;92361;-72
2022/05/14 13:47:55;;;;;;;0.10;0.10;;;;;;;;;;5020227;28;92484;-71
2022/05/14 13:50:26;;;;;;;0.10;0.10;;;;;;;;;;5038511;28;93363;-73
2022/05/14 13:52:54;;;;;;;0.10;0.10;;;;;;;;;;5038076;28;93006;-74
2022/05/14 13:55:28;;;;;;;0.88;0.73;;;;;;;;;;5037619;28;92208;-74
2022/05/14 13:57:57;;;;;;;0.13;0.13;;;;;;;;;;5033963;28;94608;-72
2022/05/14 14:00:25;;;;;;;0.20;0.20;;;;;;;;;;5037727;28;93673;-72
2022/05/14 14:03:02;;;;;;;0.00;0.00;;;;;;;;;;5037791;28;92503;-76
2022/05/14 14:05:29;;;;;;;0.80;0.75;;;;;;;;;;5038009;28;92827;-74
2022/05/14 14:07:56;;;;;;;0.10;0.10;;;;;;;;;;5040800;27;93113;-77
2022/05/14 14:10:28;;;;;;;0.10;0.10;;;;;;;;;;5038371;28;93326;-73
2022/05/14 14:12:55;;;;;;;0.10;0.10;;;;;;;;;;5039872;28;93207;-75
2022/05/14 14:15:21;;;;;;;0.10;0.10;;;;;;;;;;5038418;28;91586;-75
2022/05/14 14:17:48;;;;;;;0.10;0.10;;;;;;;;;;5037945;28;92629;-73
2022/05/14 14:20:14;;;;;;;0.25;0.25;;;;;;;;;;5037443;28;93767;-78
2022/05/14 14:22:42;;;;;;;0.22;0.17;;;;;;;;;;5035140;28;95277;-74
2022/05/14 14:25:09;;;;;;;0.17;0.17;;;;;;;;;;5036259;28;95840;-75
2022/05/14 14:27:35;;;;;;;0.30;0.30;;;;;;;;;;5037267;28;94533;-75
2022/05/14 14:30:04;;;;;;;0.25;0.25;;;;;;;;;;5041030;28;92164;-75
2022/05/14 14:32:32;;;;;;;0.10;0.10;;;;;;;;;;5036941;28;94789;-75
2022/05/14 14:34:59;;;;;;;0.20;0.20;;;;;;;;;;5037761;28;92221;-74
2022/05/14 14:37:25;;;;;;;0.08;0.08;;;;;;;;;;5037678;28;92837;-75
2022/05/14 14:39:54;;;;;;;0.08;0.08;;;;;;;;;;5037634;28;93339;-74
2022/05/14 14:42:21;;;;;;;0.05;0.05;;;;;;;;;;5037699;28;92316;-75
2022/05/14 14:44:50;;;;;;;0.10;0.10;;;;;;;;;;5036633;28;93205;-76
2022/05/14 14:47:16;;;;;;;0.20;0.20;;;;;;;;;;5035171;28;95454;-76
2022/05/14 14:49:43;;;;;;;0.28;0.28;;;;;;;;;;5037384;28;92439;-73
2022/05/14 14:52:09;;;;;;;0.00;0.00;;;;;;;;;;5040203;28;93323;-74
2022/05/14 14:54:36;;;;;;;0.57;0.38;;;;;;;;;;5037008;28;92326;-73
2022/05/14 14:57:03;;;;;;;0.38;0.38;;;;;;;;;;5037430;28;92998;-73
2022/05/14 14:59:29;;;;;;;0.00;0.00;;;;;;;;;;5036458;28;94204;-75
2022/05/14 15:02:16;;;;;;;0.10;0.10;;;;;;;;;;5036994;28;92309;-72
2022/05/14 15:04:45;;;;;;;0.00;0.00;;;;;;;;;;5037708;28;93545;-74
2022/05/14 15:07:13;;;;;;;0.65;0.65;;;;;;;;;;5036943;28;93685;-73
2022/05/14 15:09:40;;;;;;;0.10;0.10;;;;;;;;;;5037051;28;92254;-73
2022/05/14 15:12:07;;;;;;;0.10;0.10;;;;;;;;;;5038308;28;94595;-74
2022/05/14 15:14:34;;;;;;;0.10;0.10;;;;;;;;;;5037094;28;92229;-73
2022/05/14 15:17:01;;;;;;;1.27;0.20;;;;;;;;;;5018964;28;93968;-72
2022/05/14 15:19:27;;;;;;;0.10;0.10;;;;;;;;;;5036270;28;93239;-71
2022/05/14 15:21:55;;;;;;;0.10;0.10;;;;;;;;;;5037075;28;92279;-73
2022/05/14 15:24:21;;;;;;;0.10;0.10;;;;;;;;;;5036722;28;93297;-72
2022/05/14 15:26:47;;;;;;;0.10;0.10;;;;;;;;;;5036963;28;93564;-74